Vernon, Canada
Current Conditions -  °F | °C
As of 5:28 PM on Saturday 25 Oct 2014 (Local Time) from CYLW Reporting Station
Overcast Overcast  
Wind Chill: 46°   Ceiling: 11000
Heat Index: 48°   Visibility: 9mi
Dew Point: 43°   Wind: 5mph
Humidity: 82%   Direction: 320°NW
Pressure: 29.44"   Gusts: NA
Location:  50.27°N, 119.27°W
Report Text: CYLW 260028Z AUTO 32004KT 270V360 9SM FEW070 BKN110 OVC130 09/06 A2944 RMK PRESFR SLP977 DENSITY ALT 1500FT
Loading
Personal Weather Stations






























Interactive Weather Map
Tropical Storm Tracking
New forecast layout! Learn more

10-Day Weather Forecast

Advertisements
Track Severe Weather on mobile